createdAt,value
2018-08-04T00:00:08.160Z,93646.28
2018-08-04T00:02:36.656Z,93652.92
2018-08-04T00:05:05.301Z,93656.76
2018-08-04T00:07:33.371Z,93649.50
2018-08-04T00:10:01.592Z,93646.41
2018-08-04T00:12:29.972Z,93649.86
2018-08-04T00:14:58.088Z,93647.26
2018-08-04T00:17:26.184Z,93647.96
2018-08-04T00:19:54.402Z,93639.39
2018-08-04T00:22:22.564Z,93640.16
2018-08-04T00:24:50.676Z,93642.63
2018-08-04T00:27:18.854Z,93642.64
2018-08-04T00:29:47.157Z,93638.38
2018-08-04T00:32:17.277Z,93641.81
2018-08-04T00:34:45.363Z,93643.95
2018-08-04T00:37:13.605Z,93643.13
2018-08-04T00:39:41.873Z,93641.48
2018-08-04T00:42:10.102Z,93637.08
2018-08-04T00:44:38.276Z,93638.29
2018-08-04T00:47:06.411Z,93632.45
2018-08-04T00:49:34.595Z,93632.34
2018-08-04T00:52:02.786Z,93637.59
2018-08-04T00:54:31.043Z,93634.72
2018-08-04T00:56:59.235Z,93639.85
2018-08-04T00:59:27.369Z,93634.83
2018-08-04T01:01:57.616Z,93641.75
2018-08-04T01:04:25.787Z,93644.00
2018-08-04T01:06:53.875Z,93639.85
2018-08-04T01:09:22.034Z,93640.05
2018-08-04T01:11:50.244Z,93647.09
2018-08-04T01:14:18.336Z,93647.68
2018-08-04T01:16:46.592Z,93648.99
2018-08-04T01:19:14.802Z,93646.86
2018-08-04T01:21:42.995Z,93644.23
2018-08-04T01:24:11.219Z,93651.83
2018-08-04T01:26:39.338Z,93657.56
2018-08-04T01:29:07.470Z,93653.63
2018-08-04T01:31:35.609Z,93650.53
2018-08-04T01:34:03.691Z,93652.59
2018-08-04T01:36:31.792Z,93650.44
2018-08-04T01:38:59.924Z,93649.99
2018-08-04T01:41:28.168Z,93649.14
2018-08-04T01:43:56.336Z,93647.38
2018-08-04T01:46:24.483Z,93642.25
2018-08-04T01:48:52.520Z,93648.11
2018-08-04T01:51:20.732Z,93644.63
2018-08-04T01:53:48.819Z,93635.23
2018-08-04T01:56:17.012Z,93644.63
2018-08-04T01:58:45.298Z,93642.39
2018-08-04T02:01:13.528Z,93640.27
2018-08-04T02:03:41.689Z,93639.67
2018-08-04T02:06:09.820Z,93639.78
2018-08-04T02:08:37.998Z,93632.77
2018-08-04T02:11:06.190Z,93635.16
2018-08-04T02:13:34.293Z,93630.26
2018-08-04T02:16:02.505Z,93626.00
2018-08-04T02:18:30.635Z,93627.91
2018-08-04T02:20:58.757Z,93628.14
2018-08-04T02:23:26.922Z,93629.22
2018-08-04T02:25:55.101Z,93623.28
2018-08-04T02:28:23.207Z,93630.42
2018-08-04T02:30:51.633Z,93628.64
2018-08-04T02:33:19.810Z,93636.48
2018-08-04T02:35:48.021Z,93642.44
2018-08-04T02:38:16.299Z,93636.37
2018-08-04T02:40:44.369Z,93638.89
2018-08-04T02:43:12.493Z,93650.30
2018-08-04T02:45:40.697Z,93654.93
2018-08-04T02:48:08.787Z,93653.73
2018-08-04T02:50:37.017Z,93656.72
2018-08-04T02:53:05.303Z,93654.70
2018-08-04T02:55:33.419Z,93656.23
2018-08-04T02:58:01.526Z,93656.50
2018-08-04T03:00:29.680Z,93661.84
2018-08-04T03:02:57.812Z,93659.11
2018-08-04T03:05:25.893Z,93651.72
2018-08-04T03:07:53.988Z,93657.44
2018-08-04T03:10:22.096Z,93654.48
2018-08-04T03:12:50.302Z,93664.20
2018-08-04T03:15:18.415Z,93679.56
2018-08-04T03:17:46.587Z,93677.06
2018-08-04T03:20:14.851Z,93679.34
2018-08-04T03:22:43.044Z,93671.01
2018-08-04T03:25:11.212Z,93676.24
2018-08-04T03:27:39.284Z,93676.36
2018-08-04T03:30:07.642Z,93675.38
2018-08-04T03:32:37.637Z,93676.69
2018-08-04T03:35:05.764Z,93680.99
2018-08-04T03:37:33.941Z,93681.36
2018-08-04T03:40:02.111Z,93683.37
2018-08-04T03:42:30.317Z,93697.50
2018-08-04T03:44:58.378Z,93689.26
2018-08-04T03:47:26.604Z,93693.94
2018-08-04T03:49:54.789Z,93697.60
2018-08-04T03:52:22.992Z,93699.63
2018-08-04T03:55:00.130Z,93704.67
2018-08-04T03:57:28.357Z,93712.66
2018-08-04T03:59:56.564Z,93712.74
2018-08-04T04:02:24.868Z,93708.27
2018-08-04T04:04:52.938Z,93702.55
2018-08-04T04:07:21.804Z,93707.39
2018-08-04T04:09:51.134Z,93714.36
2018-08-04T04:12:19.596Z,93706.53
2018-08-04T04:14:47.778Z,93706.11
2018-08-04T04:17:15.973Z,93714.44
2018-08-04T04:19:44.339Z,93717.84
2018-08-04T04:22:12.595Z,93719.70
2018-08-04T04:24:40.835Z,93719.78
2018-08-04T04:27:09.099Z,93719.98
2018-08-04T04:29:37.364Z,93723.44
2018-08-04T04:32:07.064Z,93725.47
2018-08-04T04:34:35.373Z,93722.64
2018-08-04T04:37:03.577Z,93730.08
2018-08-04T04:39:32.072Z,93728.58
2018-08-04T04:42:00.720Z,93732.41
2018-08-04T04:44:28.814Z,93731.58
2018-08-04T04:46:57.281Z,93731.17
2018-08-04T04:49:25.722Z,93748.47
2018-08-04T04:51:53.966Z,93746.07
2018-08-04T04:54:27.723Z,93745.97
2018-08-04T04:56:55.760Z,93749.95
2018-08-04T04:59:27.448Z,93748.22
2018-08-04T05:01:56.159Z,93735.80
2018-08-04T05:04:24.447Z,93736.23
2018-08-04T05:06:52.699Z,93727.25
2018-08-04T05:09:21.052Z,93731.04
2018-08-04T05:11:49.375Z,93731.91
2018-08-04T05:14:18.082Z,93740.04
2018-08-04T05:16:46.371Z,93742.84
2018-08-04T05:19:15.224Z,93745.31
2018-08-04T05:21:43.647Z,93746.97
2018-08-04T05:24:12.299Z,93735.77
2018-08-04T05:26:40.632Z,93736.06
2018-08-04T05:29:09.027Z,93740.35
2018-08-04T05:31:41.114Z,93730.56
2018-08-04T05:34:09.421Z,93720.86
2018-08-04T05:36:38.228Z,93728.95
2018-08-04T05:39:08.995Z,93734.16
2018-08-04T05:41:37.425Z,93730.70
2018-08-04T05:44:06.443Z,93734.16
2018-08-04T05:46:34.842Z,93730.04
2018-08-04T05:49:03.051Z,93732.90
2018-08-04T05:51:31.373Z,93726.34
2018-08-04T05:53:59.819Z,93733.95
2018-08-04T05:56:28.061Z,93731.56
2018-08-04T05:58:56.629Z,93734.28
2018-08-04T06:01:24.930Z,93733.83
2018-08-04T06:03:53.533Z,93743.83
2018-08-04T06:06:21.718Z,93739.84
2018-08-04T06:08:49.990Z,93733.72
2018-08-04T06:11:18.087Z,93738.68
2018-08-04T06:13:46.267Z,93726.94
2018-08-04T06:16:14.488Z,93728.95
2018-08-04T06:18:42.612Z,93729.60
2018-08-04T06:21:10.844Z,93726.45
2018-08-04T06:23:39.088Z,93720.19
2018-08-04T06:26:07.269Z,93729.73
2018-08-04T06:28:35.379Z,93728.42
2018-08-04T06:31:03.596Z,93729.97
2018-08-04T06:33:31.880Z,93728.64
2018-08-04T06:36:00.014Z,93724.61
2018-08-04T06:38:28.311Z,93725.14
2018-08-04T06:40:56.592Z,93729.97
2018-08-04T06:43:24.774Z,93728.02
2018-08-04T06:45:53.068Z,93730.89
2018-08-04T06:48:21.324Z,93733.50
2018-08-04T06:50:49.575Z,93731.99
2018-08-04T06:53:17.920Z,93725.58
2018-08-04T06:55:46.200Z,93715.02
2018-08-04T06:58:14.692Z,93712.45
2018-08-04T07:00:43.534Z,93722.67
2018-08-04T07:03:19.471Z,93718.77
2018-08-04T07:05:47.954Z,93713.20
2018-08-04T07:08:16.236Z,93719.34
2018-08-04T07:10:44.763Z,93719.78
2018-08-04T07:13:21.221Z,93724.25
2018-08-04T07:15:49.980Z,93725.96
2018-08-04T07:18:18.317Z,93726.14
2018-08-04T07:20:47.195Z,93725.14
2018-08-04T07:23:33.744Z,93721.43
2018-08-04T07:26:02.405Z,93724.88
2018-08-04T07:28:30.700Z,93715.20
2018-08-04T07:30:59.513Z,93717.77
2018-08-04T07:33:28.429Z,93720.55
2018-08-04T07:35:56.868Z,93716.17
2018-08-04T07:38:25.408Z,93717.06
2018-08-04T07:40:53.710Z,93710.53
2018-08-04T07:43:22.254Z,93710.33
2018-08-04T07:45:51.028Z,93701.38
2018-08-04T07:48:19.329Z,93698.39
2018-08-04T07:50:48.458Z,93703.98
2018-08-04T07:53:17.013Z,93705.84
2018-08-04T07:55:45.330Z,93701.28
2018-08-04T07:58:14.729Z,93694.50
2018-08-04T08:00:43.203Z,93691.97
2018-08-04T08:03:12.124Z,93697.95
2018-08-04T08:05:40.460Z,93696.01
2018-08-04T08:08:14.735Z,93697.37
2018-08-04T08:10:43.689Z,93691.59
2018-08-04T08:13:12.837Z,93690.99
2018-08-04T08:15:41.260Z,93695.13
2018-08-04T08:18:09.636Z,93690.82
2018-08-04T08:20:38.082Z,93692.77
2018-08-04T08:23:09.905Z,93685.46
2018-08-04T08:25:38.336Z,93693.95
2018-08-04T08:28:06.771Z,93692.03
2018-08-04T08:30:35.294Z,93685.77
2018-08-04T08:33:05.268Z,93688.10
2018-08-04T08:35:33.697Z,93683.65
2018-08-04T08:38:01.946Z,93676.09
2018-08-04T08:40:30.139Z,93674.64
2018-08-04T08:42:58.682Z,93676.70
2018-08-04T08:45:28.016Z,93681.66
2018-08-04T08:47:56.531Z,93670.19
2018-08-04T08:50:25.043Z,93670.11
2018-08-04T08:52:56.593Z,93673.86
2018-08-04T08:55:25.643Z,93667.55
2018-08-04T08:58:00.251Z,93667.47
2018-08-04T09:00:30.149Z,93658.58
2018-08-04T09:03:02.624Z,93663.39
2018-08-04T09:05:31.547Z,93662.46
2018-08-04T09:08:00.846Z,93657.58
2018-08-04T09:10:35.654Z,93657.20
2018-08-04T09:13:06.301Z,93650.97
2018-08-04T09:15:35.841Z,93658.81
2018-08-04T09:18:06.888Z,93658.47
2018-08-04T09:20:36.457Z,93661.97
2018-08-04T09:23:06.285Z,93665.57
2018-08-04T09:25:36.572Z,93648.41
2018-08-04T09:28:07.640Z,93658.58
2018-08-04T09:30:36.787Z,93654.99
2018-08-04T09:33:09.593Z,93650.73
2018-08-04T09:35:38.971Z,93644.91
2018-08-04T09:38:08.058Z,93649.43
2018-08-04T09:40:42.122Z,93655.47
2018-08-04T09:43:15.665Z,93664.80
2018-08-04T09:45:47.029Z,93661.67
2018-08-04T09:48:16.576Z,93660.28
2018-08-04T09:50:46.509Z,93663.58
2018-08-04T09:55:58.296Z,93650.89
2018-08-04T09:58:28.027Z,93650.56
2018-08-04T10:01:02.794Z,93643.09
2018-08-04T10:06:09.833Z,93644.27
2018-08-04T10:08:38.534Z,93641.05
2018-08-04T10:11:07.154Z,93643.38
2018-08-04T10:13:35.978Z,93633.60
2018-08-04T10:16:04.944Z,93640.65
2018-08-04T10:18:33.703Z,93646.99
2018-08-04T10:21:02.395Z,93648.86
2018-08-04T10:23:33.828Z,93638.77
2018-08-04T10:26:02.609Z,93646.51
2018-08-04T10:28:31.368Z,93640.00
2018-08-04T10:31:00.314Z,93647.12
2018-08-04T10:33:29.046Z,93636.45
2018-08-04T10:35:57.566Z,93633.59
2018-08-04T10:38:26.090Z,93632.90
2018-08-04T10:40:55.026Z,93630.68
2018-08-04T10:43:26.057Z,93629.19
2018-08-04T10:45:54.541Z,93641.31
2018-08-04T10:48:23.716Z,93633.82
2018-08-04T10:50:52.439Z,93635.77
2018-08-04T10:53:23.311Z,93636.96
2018-08-04T10:55:52.131Z,93633.88
2018-08-04T10:58:21.104Z,93631.33
2018-08-04T11:00:50.696Z,93626.70
2018-08-04T11:03:20.028Z,93630.38
2018-08-04T11:05:48.979Z,93618.17
2018-08-04T11:08:17.654Z,93619.45
2018-08-04T11:10:47.774Z,93612.67
2018-08-04T11:13:16.469Z,93627.50
2018-08-04T11:15:45.204Z,93617.97
2018-08-04T11:18:14.378Z,93610.81
2018-08-04T11:20:43.204Z,93605.46
2018-08-04T11:23:13.981Z,93610.61
2018-08-04T11:25:43.122Z,93608.01
2018-08-04T11:28:11.934Z,93609.86
2018-08-04T11:30:40.829Z,93608.37
2018-08-04T11:33:11.406Z,93606.56
2018-08-04T11:35:40.201Z,93604.03
2018-08-04T11:38:08.810Z,93602.68
2018-08-04T11:40:37.812Z,93619.64
2018-08-04T11:43:07.066Z,93603.32
2018-08-04T11:45:36.931Z,93605.77
2018-08-04T11:48:06.362Z,93602.89
2018-08-04T11:50:35.057Z,93602.47
2018-08-04T11:53:07.073Z,93592.88
2018-08-04T11:55:35.691Z,93601.16
2018-08-04T11:58:04.961Z,93593.60
2018-08-04T12:00:33.749Z,93584.34
2018-08-04T12:03:02.853Z,93589.45
2018-08-04T12:05:31.841Z,93579.70
2018-08-04T12:08:01.388Z,93586.92
2018-08-04T12:10:30.246Z,93583.41
2018-08-04T12:12:59.907Z,93587.73
2018-08-04T12:15:28.855Z,93582.55
2018-08-04T12:17:57.672Z,93583.72
2018-08-04T12:20:26.407Z,93574.30
2018-08-04T12:23:00.637Z,93571.47
2018-08-04T12:25:30.290Z,93567.27
2018-08-04T12:27:59.197Z,93567.70
2018-08-04T12:30:27.972Z,93573.01
2018-08-04T12:33:06.441Z,93573.50
2018-08-04T12:35:35.691Z,93563.71
2018-08-04T12:38:04.350Z,93565.78
2018-08-04T12:40:32.936Z,93565.81
2018-08-04T12:43:09.713Z,93558.36
2018-08-04T12:45:39.306Z,93558.58
2018-08-04T12:48:10.816Z,93562.17
2018-08-04T12:50:40.397Z,93564.33
2018-08-04T12:53:09.484Z,93553.66
2018-08-04T12:55:45.169Z,93565.94
2018-08-04T12:58:14.189Z,93560.79
2018-08-04T13:00:43.359Z,93563.33
2018-08-04T13:03:13.624Z,93561.58
2018-08-04T13:05:43.418Z,93554.67
2018-08-04T13:08:13.394Z,93563.19
2018-08-04T13:10:43.332Z,93553.27
2018-08-04T13:13:12.911Z,93542.94
2018-08-04T13:15:42.546Z,93550.65
2018-08-04T13:18:11.610Z,93557.40
2018-08-04T13:20:41.600Z,93550.69
2018-08-04T13:23:13.139Z,93551.26
2018-08-04T13:25:42.547Z,93550.89
2018-08-04T13:28:12.605Z,93553.86
2018-08-04T13:30:41.349Z,93549.05
2018-08-04T13:33:10.670Z,93552.84
2018-08-04T13:35:40.010Z,93556.84
2018-08-04T13:38:09.611Z,93553.59
2018-08-04T13:40:38.881Z,93552.09
2018-08-04T13:43:08.676Z,93554.11
2018-08-04T13:45:37.849Z,93552.70
2018-08-04T13:48:06.807Z,93549.55
2018-08-04T13:50:35.568Z,93546.88
2018-08-04T13:53:04.994Z,93552.44
2018-08-04T13:55:34.403Z,93547.95
2018-08-04T13:58:03.149Z,93553.30
2018-08-04T14:00:31.901Z,93548.25
2018-08-04T14:03:07.121Z,93551.34
2018-08-04T14:05:36.808Z,93546.91
2018-08-04T14:08:05.414Z,93553.39
2018-08-04T14:10:34.517Z,93550.30
2018-08-04T14:13:03.599Z,93551.08
2018-08-04T14:15:33.433Z,93544.63
2018-08-04T14:18:07.091Z,93543.78
2018-08-04T14:20:36.300Z,93553.63
2018-08-04T14:23:05.925Z,93546.69
2018-08-04T14:25:34.861Z,93549.00
2018-08-04T14:28:04.951Z,93543.97
2018-08-04T14:30:41.154Z,93539.09
2018-08-04T14:33:13.443Z,93543.31
2018-08-04T14:35:47.865Z,93549.45
2018-08-04T14:38:17.783Z,93542.02
2018-08-04T14:40:46.737Z,93542.80
2018-08-04T14:43:16.875Z,93545.91
2018-08-04T14:45:46.272Z,93540.58
2018-08-04T14:48:14.978Z,93537.58
2018-08-04T14:50:43.544Z,93537.58
2018-08-04T14:53:12.584Z,93535.17
2018-08-04T14:55:41.769Z,93526.25
2018-08-04T14:58:10.100Z,93525.87
2018-08-04T15:00:38.829Z,93541.06
2018-08-04T15:03:07.174Z,93531.13
2018-08-04T15:05:37.477Z,93526.79
2018-08-04T15:08:06.432Z,93526.91
2018-08-04T15:10:36.867Z,93531.81
2018-08-04T15:13:05.166Z,93527.62
2018-08-04T15:15:36.326Z,93530.22
2018-08-04T15:18:05.118Z,93541.98
2018-08-04T15:20:33.464Z,93539.29
2018-08-04T15:23:01.656Z,93543.61
2018-08-04T15:25:30.944Z,93537.55
2018-08-04T15:27:59.339Z,93533.68
2018-08-04T15:30:27.601Z,93537.60
2018-08-04T15:32:55.842Z,93532.18
2018-08-04T15:35:24.173Z,93536.50
2018-08-04T15:37:52.630Z,93533.51
2018-08-04T15:40:21.146Z,93533.91
2018-08-04T15:42:49.604Z,93529.63
2018-08-04T15:45:19.261Z,93532.47
2018-08-04T15:47:48.097Z,93537.83
2018-08-04T15:50:16.276Z,93539.64
2018-08-04T15:52:44.723Z,93541.03
2018-08-04T15:55:22.739Z,93540.77
2018-08-04T15:57:51.336Z,93539.52
2018-08-04T16:00:22.055Z,93540.16
2018-08-04T16:02:50.496Z,93541.53
2018-08-04T16:05:19.962Z,93544.53
2018-08-04T16:07:48.527Z,93540.47
2018-08-04T16:10:16.799Z,93542.77
2018-08-04T16:12:45.283Z,93541.88
2018-08-04T16:15:23.181Z,93537.06
2018-08-04T16:17:52.868Z,93534.91
2018-08-04T16:20:23.236Z,93529.81
2018-08-04T16:22:52.348Z,93537.20
2018-08-04T16:25:22.744Z,93543.45
2018-08-04T16:27:51.971Z,93539.75
2018-08-04T16:30:20.391Z,93544.61
2018-08-04T16:32:49.603Z,93541.05
2018-08-04T16:35:18.129Z,93545.47
2018-08-04T16:37:47.462Z,93547.23
2018-08-04T16:40:15.897Z,93556.84
2018-08-04T16:42:44.705Z,93556.70
2018-08-04T16:45:14.245Z,93558.02
2018-08-04T16:47:42.922Z,93559.64
2018-08-04T16:50:11.366Z,93558.81
2018-08-04T16:52:39.894Z,93560.05
2018-08-04T16:55:15.186Z,93559.84
2018-08-04T16:57:44.713Z,93560.87
2018-08-04T17:00:13.151Z,93555.78
2018-08-04T17:02:41.830Z,93559.33
2018-08-04T17:05:15.831Z,93565.84
2018-08-04T17:07:44.816Z,93568.14
2018-08-04T17:10:13.646Z,93570.97
2018-08-04T17:12:43.710Z,93572.96
2018-08-04T17:15:13.686Z,93572.74
2018-08-04T17:17:43.160Z,93579.12
2018-08-04T17:20:11.734Z,93578.38
2018-08-04T17:22:40.992Z,93585.00
2018-08-04T17:25:15.985Z,93580.12
2018-08-04T17:27:44.485Z,93581.56
2018-08-04T17:30:13.086Z,93579.05
2018-08-04T17:32:42.624Z,93577.18
2018-08-04T17:35:16.353Z,93580.70
2018-08-04T17:37:49.223Z,93584.64
2018-08-04T17:40:21.510Z,93589.45
2018-08-04T17:42:54.660Z,93595.59
2018-08-04T17:45:31.842Z,93598.59
2018-08-04T17:48:02.800Z,93600.59
2018-08-04T17:50:32.831Z,93603.34
2018-08-04T17:53:03.494Z,93612.26
2018-08-04T17:55:38.990Z,93614.02
2018-08-04T17:58:15.151Z,93614.81
2018-08-04T18:00:44.051Z,93613.28
2018-08-04T18:03:14.062Z,93615.91
2018-08-04T18:05:44.933Z,93614.37
2018-08-04T18:08:14.521Z,93611.84
2018-08-04T18:10:45.403Z,93615.22
2018-08-04T18:13:15.390Z,93611.33
2018-08-04T18:15:45.636Z,93614.06
2018-08-04T18:18:16.074Z,93615.66
2018-08-04T18:20:47.602Z,93621.47
2018-08-04T18:23:16.655Z,93622.39
2018-08-04T18:25:46.354Z,93626.21
2018-08-04T18:28:14.890Z,93631.89
2018-08-04T18:30:43.955Z,93626.72
2018-08-04T18:33:12.742Z,93628.94
2018-08-04T18:35:51.678Z,93634.92
2018-08-04T18:38:20.796Z,93639.67
2018-08-04T18:40:49.944Z,93639.48
2018-08-04T18:43:18.520Z,93641.42
2018-08-04T18:45:48.055Z,93643.64
2018-08-04T18:48:16.626Z,93649.93
2018-08-04T18:50:46.662Z,93648.80
2018-08-04T18:53:18.179Z,93649.05
2018-08-04T18:55:47.928Z,93651.98
2018-08-04T18:58:16.475Z,93647.06
2018-08-04T19:00:45.357Z,93655.64
2018-08-04T19:03:14.435Z,93664.85
2018-08-04T19:05:49.809Z,93662.84
2018-08-04T19:08:18.426Z,93659.60
2018-08-04T19:10:48.341Z,93654.02
2018-08-04T19:13:22.818Z,93651.78
2018-08-04T19:15:58.268Z,93658.56
2018-08-04T19:18:26.688Z,93656.09
2018-08-04T19:20:55.377Z,93654.29
2018-08-04T19:23:25.461Z,93650.41
2018-08-04T19:25:54.179Z,93651.83
2018-08-04T19:28:25.796Z,93654.53
2018-08-04T19:30:55.377Z,93665.18
2018-08-04T19:33:24.410Z,93662.98
2018-08-04T19:35:59.488Z,93657.59
2018-08-04T19:38:28.813Z,93656.80
2018-08-04T19:40:58.073Z,93653.77
2018-08-04T19:43:27.732Z,93662.61
2018-08-04T19:45:58.049Z,93653.34
2018-08-04T19:48:26.631Z,93656.33
2018-08-04T19:50:55.284Z,93654.39
2018-08-04T19:53:28.530Z,93648.97
2018-08-04T19:56:00.692Z,93650.91
2018-08-04T19:58:29.711Z,93645.22
2018-08-04T20:00:58.807Z,93649.78
2018-08-04T20:03:29.487Z,93646.63
2018-08-04T20:05:59.354Z,93653.39
2018-08-04T20:08:28.020Z,93655.89
2018-08-04T20:11:00.177Z,93654.56
2018-08-04T20:13:29.245Z,93647.14
2018-08-04T20:16:10.525Z,93652.95
2018-08-04T20:18:39.250Z,93649.37
2018-08-04T20:21:08.461Z,93650.63
2018-08-04T20:23:38.181Z,93653.77
2018-08-04T20:26:07.972Z,93653.56
2018-08-04T20:28:36.797Z,93661.52
2018-08-04T20:31:10.737Z,93654.20
2018-08-04T20:33:39.946Z,93653.08
2018-08-04T20:36:22.656Z,93655.56
2018-08-04T20:38:55.598Z,93658.11
2018-08-04T20:41:28.131Z,93653.94
2018-08-04T20:43:58.386Z,93653.80
2018-08-04T20:46:35.164Z,93660.55
2018-08-04T20:49:04.974Z,93654.04
2018-08-04T20:51:35.095Z,93655.22
2018-08-04T20:54:04.513Z,93656.08
2018-08-04T20:56:36.711Z,93659.01
2018-08-04T20:59:06.475Z,93661.89
2018-08-04T21:02:09.583Z,93660.63
2018-08-04T21:04:37.979Z,93664.92
2018-08-04T21:07:06.862Z,93653.45
2018-08-04T21:09:43.366Z,93661.00
2018-08-04T21:12:12.620Z,93664.98
2018-08-04T21:14:41.247Z,93662.03
2018-08-04T21:17:10.158Z,93665.72
2018-08-04T21:19:39.162Z,93661.09
2018-08-04T21:22:08.472Z,93656.37
2018-08-04T21:24:37.028Z,93663.19
2018-08-04T21:27:05.448Z,93668.68
2018-08-04T21:29:34.001Z,93676.27
2018-08-04T21:32:02.433Z,93676.91
2018-08-04T21:34:37.352Z,93674.08
2018-08-04T21:37:06.506Z,93677.44
2018-08-04T21:39:44.887Z,93671.94
2018-08-04T21:42:16.319Z,93674.23
2018-08-04T21:44:50.508Z,93672.67
2018-08-04T21:47:19.302Z,93683.17
2018-08-04T21:49:47.705Z,93680.45
2018-08-04T21:52:16.158Z,93687.75
2018-08-04T21:54:44.645Z,93685.49
2018-08-04T21:57:13.297Z,93689.06
2018-08-04T21:59:41.555Z,93687.56
2018-08-04T22:02:10.122Z,93689.70
2018-08-04T22:04:38.327Z,93690.77
2018-08-04T22:07:46.006Z,93694.12
2018-08-04T22:10:15.025Z,93686.07
2018-08-04T22:12:43.741Z,93691.19
2018-08-04T22:15:14.703Z,93692.38
2018-08-04T22:17:47.467Z,93692.89
2018-08-04T22:20:18.058Z,93697.06
2018-08-04T22:22:46.368Z,93691.02
2018-08-04T22:25:23.143Z,93695.56
2018-08-04T22:27:51.738Z,93691.14
2018-08-04T22:30:21.035Z,93694.30
2018-08-04T22:32:49.924Z,93693.64
2018-08-04T22:35:20.794Z,93703.16
2018-08-04T22:37:49.307Z,93699.59
2018-08-04T22:40:19.214Z,93705.95
2018-08-04T22:42:47.794Z,93700.48
2018-08-04T22:46:19.402Z,93697.74
2018-08-04T22:48:48.889Z,93690.50
2018-08-04T22:51:25.694Z,93687.28
2018-08-04T22:53:54.284Z,93689.34
2018-08-04T22:56:24.937Z,93683.63
2018-08-04T22:58:53.339Z,93682.55
2018-08-04T23:01:21.780Z,93678.41
2018-08-04T23:03:50.314Z,93685.07
2018-08-04T23:06:20.813Z,93681.73
2018-08-04T23:08:49.216Z,93680.66
2018-08-04T23:11:17.703Z,93679.12
2018-08-04T23:13:46.170Z,93681.52
2018-08-04T23:16:14.785Z,93683.41
2018-08-04T23:18:43.255Z,93681.73
2018-08-04T23:21:11.725Z,93680.78
2018-08-04T23:23:40.353Z,93677.11
2018-08-04T23:26:13.483Z,93677.12
2018-08-04T23:28:42.065Z,93676.64
2018-08-04T23:31:10.324Z,93681.06
2018-08-04T23:33:38.690Z,93682.15
2018-08-04T23:36:10.957Z,93680.95
2018-08-04T23:38:39.393Z,93677.52
2018-08-04T23:41:07.775Z,93673.92
2018-08-04T23:43:36.131Z,93680.38
2018-08-04T23:46:05.562Z,93673.13
2018-08-04T23:48:33.942Z,93674.77
2018-08-04T23:51:02.398Z,93673.02
2018-08-04T23:53:30.840Z,93666.58
2018-08-04T23:56:09.317Z,93663.74
2018-08-04T23:58:37.732Z,93661.95
